createdAt,value
2023-01-21T00:01:07.635Z,2.04
2023-01-21T00:03:35.491Z,2.01
2023-01-21T00:06:03.745Z,1.94
2023-01-21T00:08:31.590Z,1.83
2023-01-21T00:11:06.735Z,1.80
2023-01-21T00:13:35.731Z,1.83
2023-01-21T00:16:04.311Z,1.82
2023-01-21T00:18:32.426Z,1.83
2023-01-21T00:21:00.484Z,1.86
2023-01-21T00:23:29.432Z,1.86
2023-01-21T00:25:58.240Z,1.79
2023-01-21T00:28:30.188Z,1.77
2023-01-21T00:30:59.198Z,1.71
2023-01-21T00:33:27.952Z,1.69
2023-01-21T00:36:05.011Z,1.68
2023-01-21T00:38:33.204Z,1.74
2023-01-21T00:41:06.124Z,1.85
2023-01-21T00:43:34.000Z,1.88
2023-01-21T00:46:02.307Z,1.84
2023-01-21T00:48:30.238Z,1.79
2023-01-21T00:51:01.446Z,1.75
2023-01-21T00:53:30.776Z,1.71
2023-01-21T00:56:00.252Z,1.75
2023-01-21T00:58:29.164Z,1.81
2023-01-21T01:01:01.666Z,1.77
2023-01-21T01:03:30.472Z,1.68
2023-01-21T01:06:06.388Z,1.69
2023-01-21T01:08:34.417Z,1.75
2023-01-21T01:11:02.766Z,1.76
2023-01-21T01:13:31.232Z,1.77
2023-01-21T01:16:00.222Z,1.86
2023-01-21T01:18:29.684Z,1.91
2023-01-21T01:20:58.115Z,2.02
2023-01-21T01:23:26.223Z,2.05
2023-01-21T01:25:55.346Z,2.06
2023-01-21T01:28:23.206Z,2.11
2023-01-21T01:30:51.799Z,2.14
2023-01-21T01:33:20.120Z,2.19
2023-01-21T01:35:48.659Z,2.28
2023-01-21T01:38:17.614Z,2.28
2023-01-21T01:40:46.187Z,2.22
2023-01-21T01:43:19.007Z,2.16
2023-01-21T01:45:47.928Z,2.14
2023-01-21T01:48:21.070Z,2.23
2023-01-21T01:50:49.548Z,2.23
2023-01-21T01:53:18.836Z,2.16
2023-01-21T01:55:47.339Z,2.07
2023-01-21T01:58:16.428Z,2.01
2023-01-21T02:00:44.649Z,2.00
2023-01-21T02:03:31.442Z,1.96
2023-01-21T02:05:59.529Z,1.89
2023-01-21T02:08:27.863Z,1.86
2023-01-21T02:10:56.710Z,1.83
2023-01-21T02:13:27.338Z,1.83
2023-01-21T02:16:04.266Z,1.86
2023-01-21T02:18:41.450Z,1.96
2023-01-21T02:21:20.998Z,2.08
2023-01-21T02:23:48.849Z,2.09
2023-01-21T02:26:19.492Z,1.98
2023-01-21T02:29:05.959Z,1.90
2023-01-21T02:31:40.117Z,1.89
2023-01-21T02:34:11.089Z,1.88
2023-01-21T02:36:54.071Z,1.79
2023-01-21T02:39:31.964Z,1.71
2023-01-21T02:42:08.133Z,1.69
2023-01-21T02:44:39.204Z,1.67
2023-01-21T02:47:15.157Z,1.61
2023-01-21T02:49:52.135Z,1.51
2023-01-21T02:52:21.141Z,1.43
2023-01-21T02:54:59.706Z,1.38
2023-01-21T02:57:33.411Z,1.38
2023-01-21T03:00:02.750Z,1.39
2023-01-21T03:02:33.930Z,1.42
2023-01-21T03:05:16.398Z,1.44
2023-01-21T03:07:49.735Z,1.42
2023-01-21T03:10:22.455Z,1.42
2023-01-21T03:12:56.077Z,1.43
2023-01-21T03:15:45.607Z,1.43
2023-01-21T03:18:18.525Z,1.39
2023-01-21T03:20:58.529Z,1.38
2023-01-21T03:23:32.719Z,1.38
2023-01-21T03:26:01.064Z,1.38
2023-01-21T03:28:31.983Z,1.41
2023-01-21T03:31:20.286Z,1.46
2023-01-21T03:33:52.165Z,1.45
2023-01-21T03:36:38.627Z,1.42
2023-01-21T03:39:18.717Z,1.39
2023-01-21T03:41:46.715Z,1.36
2023-01-21T03:44:14.792Z,1.37
2023-01-21T03:46:58.069Z,1.35
2023-01-21T03:49:31.515Z,1.34
2023-01-21T03:52:01.284Z,1.33
2023-01-21T03:54:29.315Z,1.37
2023-01-21T03:56:57.166Z,1.39
2023-01-21T03:59:25.147Z,1.37
2023-01-21T04:01:53.251Z,1.39
2023-01-21T04:04:21.182Z,1.46
2023-01-21T04:06:49.417Z,1.47
2023-01-21T04:09:17.229Z,1.51
2023-01-21T04:11:45.186Z,1.58
2023-01-21T04:14:13.081Z,1.63
2023-01-21T04:16:41.100Z,1.70
2023-01-21T04:19:09.166Z,1.74
2023-01-21T04:21:37.294Z,1.72
2023-01-21T04:24:05.416Z,1.73
2023-01-21T04:26:33.275Z,1.71
2023-01-21T04:29:01.044Z,1.67
2023-01-21T04:31:29.023Z,1.71
2023-01-21T04:33:56.923Z,1.77
2023-01-21T04:36:24.801Z,1.89
2023-01-21T04:38:52.837Z,1.99
2023-01-21T04:41:20.952Z,2.05
2023-01-21T04:43:48.934Z,2.02
2023-01-21T04:46:17.052Z,2.02
2023-01-21T04:48:44.868Z,2.09
2023-01-21T04:51:12.881Z,2.14
2023-01-21T04:53:40.943Z,2.18
2023-01-21T04:56:08.834Z,2.15
2023-01-21T04:58:36.827Z,2.01
2023-01-21T05:01:04.805Z,1.90
2023-01-21T05:03:32.887Z,1.80
2023-01-21T05:06:00.778Z,1.74
2023-01-21T05:08:28.757Z,1.72
2023-01-21T05:10:56.903Z,1.71
2023-01-21T05:13:24.896Z,1.70
2023-01-21T05:15:52.983Z,1.74
2023-01-21T05:18:20.813Z,1.75
2023-01-21T05:20:48.813Z,1.67
2023-01-21T05:23:16.720Z,1.60
2023-01-21T05:25:44.550Z,1.56
2023-01-21T05:28:12.511Z,1.53
2023-01-21T05:30:41.811Z,1.51
2023-01-21T05:33:11.195Z,1.53
2023-01-21T05:35:39.115Z,1.50
2023-01-21T05:38:07.696Z,1.49
2023-01-21T05:40:35.611Z,1.49
2023-01-21T05:43:03.682Z,1.50
2023-01-21T05:45:31.624Z,1.45
2023-01-21T05:47:59.674Z,1.43
2023-01-21T05:50:27.735Z,1.48
2023-01-21T05:52:55.600Z,1.53
2023-01-21T05:55:23.397Z,1.67
2023-01-21T05:57:51.409Z,1.78
2023-01-21T06:00:19.728Z,1.82
2023-01-21T06:02:47.900Z,1.90
2023-01-21T06:05:15.979Z,1.98
2023-01-21T06:07:44.794Z,2.00
2023-01-21T06:10:13.615Z,1.92
2023-01-21T06:12:41.665Z,1.91
2023-01-21T06:15:10.597Z,1.93
2023-01-21T06:17:39.866Z,1.94
2023-01-21T06:20:08.159Z,1.95
2023-01-21T06:22:36.515Z,1.87
2023-01-21T06:25:04.647Z,1.81
2023-01-21T06:27:34.268Z,1.73
2023-01-21T06:30:02.163Z,1.69
2023-01-21T06:32:30.233Z,1.62
2023-01-21T06:34:58.170Z,1.58
2023-01-21T06:37:26.472Z,1.59
2023-01-21T06:39:54.473Z,1.61
2023-01-21T06:42:22.406Z,1.62
2023-01-21T06:44:50.529Z,1.62
2023-01-21T06:47:18.718Z,1.59
2023-01-21T06:49:46.674Z,1.57
2023-01-21T06:52:14.832Z,1.56
2023-01-21T06:54:43.612Z,1.52
2023-01-21T06:57:12.131Z,1.49
2023-01-21T06:59:40.176Z,1.48
2023-01-21T07:02:10.484Z,1.47
2023-01-21T07:04:38.373Z,1.44
2023-01-21T07:07:06.397Z,1.40
2023-01-21T07:09:34.216Z,1.39
2023-01-21T07:12:03.817Z,1.42
2023-01-21T07:14:31.660Z,1.46
2023-01-21T07:16:59.532Z,1.45
2023-01-21T07:19:28.139Z,1.47
2023-01-21T07:21:56.063Z,1.49
2023-01-21T07:24:23.873Z,1.50
2023-01-21T07:26:56.887Z,1.55
2023-01-21T07:29:24.888Z,1.61
2023-01-21T07:31:53.048Z,1.67
2023-01-21T07:34:21.033Z,1.73
2023-01-21T07:36:49.176Z,1.84
2023-01-21T07:39:17.145Z,1.92
2023-01-21T07:41:45.294Z,1.90
2023-01-21T07:44:13.294Z,1.88
2023-01-21T07:46:41.504Z,1.88
2023-01-21T07:49:12.893Z,1.89
2023-01-21T07:51:41.776Z,1.96
2023-01-21T07:54:11.075Z,1.98
2023-01-21T07:56:39.657Z,1.95
2023-01-21T07:59:09.992Z,1.96
2023-01-21T08:01:38.032Z,2.02
2023-01-21T08:04:07.207Z,2.07
2023-01-21T08:06:35.192Z,2.06
2023-01-21T08:09:03.380Z,2.06
2023-01-21T08:11:31.449Z,2.13
2023-01-21T08:13:59.412Z,2.19
2023-01-21T08:16:27.372Z,2.24
2023-01-21T08:18:55.320Z,2.32
2023-01-21T08:21:23.223Z,2.33
2023-01-21T08:23:51.454Z,2.27
2023-01-21T08:26:20.156Z,2.20
2023-01-21T08:28:48.105Z,2.18
2023-01-21T08:31:16.351Z,2.16
2023-01-21T08:33:44.329Z,2.14
2023-01-21T08:36:12.205Z,2.15
2023-01-21T08:38:40.821Z,2.19
2023-01-21T08:41:08.757Z,2.17
2023-01-21T08:43:37.228Z,2.13
2023-01-21T08:46:05.588Z,2.12
2023-01-21T08:48:33.606Z,2.13
2023-01-21T08:51:01.868Z,2.10
2023-01-21T08:53:34.011Z,2.10
2023-01-21T08:56:03.447Z,2.09
2023-01-21T08:58:31.913Z,2.11
2023-01-21T09:00:59.887Z,2.16
2023-01-21T09:03:29.889Z,2.18
2023-01-21T09:06:00.509Z,2.17
2023-01-21T09:08:29.337Z,2.21
2023-01-21T09:11:00.896Z,2.31
2023-01-21T09:13:30.266Z,2.33
2023-01-21T09:15:59.043Z,2.38
2023-01-21T09:18:26.942Z,2.39
2023-01-21T09:20:59.664Z,2.37
2023-01-21T09:23:28.222Z,2.37
2023-01-21T09:26:03.770Z,2.47
2023-01-21T09:28:33.292Z,2.55
2023-01-21T09:31:06.049Z,2.59
2023-01-21T09:33:35.961Z,2.62
2023-01-21T09:36:04.931Z,2.67
2023-01-21T09:38:33.877Z,2.66
2023-01-21T09:41:13.018Z,2.62
2023-01-21T09:43:43.941Z,2.56
2023-01-21T09:46:18.124Z,2.54
2023-01-21T09:48:47.951Z,2.51
2023-01-21T09:51:29.257Z,2.49
2023-01-21T09:53:59.047Z,2.45
2023-01-21T09:56:36.124Z,2.42
2023-01-21T09:59:07.368Z,2.41
2023-01-21T10:01:37.297Z,2.45
2023-01-21T10:04:40.766Z,2.52
2023-01-21T10:07:15.637Z,2.54
2023-01-21T10:09:58.748Z,2.57
2023-01-21T10:12:31.902Z,2.65
2023-01-21T10:15:00.000Z,2.71
2023-01-21T10:17:34.897Z,2.81
2023-01-21T10:20:15.043Z,2.91
2023-01-21T10:22:46.913Z,3.02
2023-01-21T10:25:31.745Z,3.09
2023-01-21T10:28:02.795Z,3.11
2023-01-21T10:30:39.387Z,3.13
2023-01-21T10:33:12.661Z,3.21
2023-01-21T10:36:01.269Z,3.36
2023-01-21T10:38:29.288Z,3.50
2023-01-21T10:41:06.938Z,3.60
2023-01-21T10:43:36.059Z,3.71
2023-01-21T10:46:15.177Z,3.87
2023-01-21T10:48:55.274Z,3.93
2023-01-21T10:51:23.835Z,4.01
2023-01-21T10:54:16.265Z,4.45
2023-01-21T10:57:22.548Z,4.93
2023-01-21T10:59:51.421Z,5.21
2023-01-21T11:02:27.896Z,5.37
2023-01-21T11:04:58.478Z,5.20
2023-01-21T11:07:27.208Z,4.97
2023-01-21T11:09:55.984Z,4.67
2023-01-21T11:12:25.302Z,4.48
2023-01-21T11:15:08.058Z,4.48
2023-01-21T11:17:37.993Z,4.55
2023-01-21T11:20:16.697Z,4.61
2023-01-21T11:22:46.371Z,4.54
2023-01-21T11:25:32.839Z,4.42
2023-01-21T11:28:00.803Z,4.35
2023-01-21T11:30:49.374Z,4.22
2023-01-21T11:33:21.462Z,4.04
2023-01-21T11:35:50.232Z,4.03
2023-01-21T11:38:23.234Z,4.06
2023-01-21T11:40:59.740Z,4.09
2023-01-21T11:43:40.421Z,4.02
2023-01-21T11:46:21.440Z,3.97
2023-01-21T11:48:50.403Z,3.89
2023-01-21T11:51:18.474Z,3.86
2023-01-21T11:53:46.837Z,3.90
2023-01-21T11:56:16.825Z,3.99
2023-01-21T11:58:45.182Z,4.03
2023-01-21T12:01:20.699Z,4.02
2023-01-21T12:03:48.854Z,4.02
2023-01-21T12:06:30.603Z,4.05
2023-01-21T12:09:02.553Z,4.06
2023-01-21T12:11:31.707Z,4.07
2023-01-21T12:14:18.606Z,4.11
2023-01-21T12:17:06.550Z,4.31
2023-01-21T12:19:37.604Z,4.65
2023-01-21T12:22:05.670Z,4.92
2023-01-21T12:24:46.434Z,5.25
2023-01-21T12:27:20.783Z,5.55
2023-01-21T12:30:07.293Z,5.70
2023-01-21T12:33:01.812Z,6.00
2023-01-21T12:35:40.636Z,6.45
2023-01-21T12:38:16.839Z,6.63
2023-01-21T12:40:44.886Z,6.63
2023-01-21T12:43:28.702Z,6.44
2023-01-21T12:45:59.459Z,6.12
2023-01-21T12:48:35.875Z,5.87
2023-01-21T12:51:09.631Z,5.75
2023-01-21T12:53:44.401Z,5.67
2023-01-21T12:56:24.776Z,5.55
2023-01-21T12:59:19.484Z,5.38
2023-01-21T13:01:53.475Z,5.22
2023-01-21T13:04:21.398Z,5.08
2023-01-21T13:07:01.385Z,4.95
2023-01-21T13:09:29.439Z,4.83
2023-01-21T13:12:06.534Z,4.74
2023-01-21T13:14:47.970Z,4.65
2023-01-21T13:17:18.986Z,4.62
2023-01-21T13:19:48.189Z,4.62
2023-01-21T13:22:16.012Z,4.65
2023-01-21T13:25:03.285Z,4.75
2023-01-21T13:27:37.555Z,4.81
2023-01-21T13:30:08.301Z,4.91
2023-01-21T13:32:54.864Z,5.04
2023-01-21T13:35:26.109Z,5.19
2023-01-21T13:38:12.476Z,5.25
2023-01-21T13:40:43.722Z,5.23
2023-01-21T13:43:24.474Z,5.25
2023-01-21T13:46:12.864Z,5.25
2023-01-21T13:48:40.856Z,5.23
2023-01-21T13:51:09.021Z,5.21
2023-01-21T13:53:39.895Z,5.16
2023-01-21T13:56:13.702Z,5.09
2023-01-21T13:59:04.412Z,5.04
2023-01-21T14:01:38.995Z,4.95
2023-01-21T14:04:14.103Z,4.78
2023-01-21T14:06:55.816Z,4.54
2023-01-21T14:09:29.639Z,4.38
2023-01-21T14:12:01.551Z,4.32
2023-01-21T14:14:44.933Z,4.22
2023-01-21T14:17:27.865Z,4.14
2023-01-21T14:20:14.393Z,4.06
2023-01-21T14:22:42.430Z,3.98
2023-01-21T14:25:13.673Z,3.91
2023-01-21T14:27:41.560Z,3.85
2023-01-21T14:30:14.755Z,3.80
2023-01-21T14:33:06.789Z,3.75
2023-01-21T14:35:41.521Z,3.74
2023-01-21T14:38:13.629Z,3.74
2023-01-21T14:40:45.983Z,3.75
2023-01-21T14:43:32.198Z,3.74
2023-01-21T14:46:00.907Z,3.72
2023-01-21T14:48:39.864Z,3.70
2023-01-21T14:51:07.905Z,3.71
2023-01-21T14:53:49.422Z,3.72
2023-01-21T14:56:31.770Z,3.69
2023-01-21T14:59:02.098Z,3.67
2023-01-21T15:01:32.128Z,3.62
2023-01-21T15:04:02.794Z,3.57
2023-01-21T15:06:35.454Z,3.58
2023-01-21T15:09:05.499Z,3.62
2023-01-21T15:11:37.878Z,3.64
2023-01-21T15:14:13.686Z,3.66
2023-01-21T15:16:43.088Z,3.67
2023-01-21T15:19:11.236Z,3.65
2023-01-21T15:21:45.283Z,3.63
2023-01-21T15:24:21.187Z,3.62
2023-01-21T15:27:08.129Z,3.61
2023-01-21T15:29:37.533Z,3.59
2023-01-21T15:32:19.246Z,3.57
2023-01-21T15:34:48.714Z,3.58
2023-01-21T15:37:19.634Z,3.59
2023-01-21T15:39:48.568Z,3.58
2023-01-21T15:42:22.886Z,3.54
2023-01-21T15:45:06.147Z,3.51
2023-01-21T15:47:44.028Z,3.46
2023-01-21T15:50:18.049Z,3.41
2023-01-21T15:52:51.987Z,3.39
2023-01-21T15:55:26.055Z,3.38
2023-01-21T15:57:54.115Z,3.37
2023-01-21T16:00:40.634Z,3.35
2023-01-21T16:03:13.197Z,3.34
2023-01-21T16:05:41.323Z,3.32
2023-01-21T16:08:09.963Z,3.32
2023-01-21T16:10:47.143Z,3.31
2023-01-21T16:13:18.341Z,3.28
2023-01-21T16:15:52.240Z,3.27
2023-01-21T16:18:21.091Z,3.26
2023-01-21T16:20:52.804Z,3.27
2023-01-21T16:23:22.432Z,3.26
2023-01-21T16:25:52.598Z,3.25
2023-01-21T16:28:21.318Z,3.24
2023-01-21T16:30:54.167Z,3.23
2023-01-21T16:33:22.965Z,3.18
2023-01-21T16:35:52.265Z,3.10
2023-01-21T16:38:22.440Z,3.06
2023-01-21T16:40:58.989Z,3.03
2023-01-21T16:43:27.862Z,3.03
2023-01-21T16:45:57.297Z,3.06
2023-01-21T16:48:26.692Z,3.12
2023-01-21T16:50:55.080Z,3.19
2023-01-21T16:53:23.814Z,3.23
2023-01-21T16:55:56.314Z,3.19
2023-01-21T16:58:32.575Z,3.19
2023-01-21T17:01:11.156Z,3.20
2023-01-21T17:03:39.491Z,3.26
2023-01-21T17:06:13.477Z,3.26
2023-01-21T17:08:44.981Z,3.24
2023-01-21T17:11:13.167Z,3.28
2023-01-21T17:13:42.453Z,3.33
2023-01-21T17:16:18.939Z,3.34
2023-01-21T17:18:53.383Z,3.34
2023-01-21T17:21:31.281Z,3.45
2023-01-21T17:24:04.720Z,3.54
2023-01-21T17:26:41.866Z,3.61
2023-01-21T17:29:26.318Z,3.62
2023-01-21T17:31:55.864Z,3.53
2023-01-21T17:34:28.202Z,3.51
2023-01-21T17:36:56.604Z,3.53
2023-01-21T17:39:43.391Z,3.45
2023-01-21T17:42:18.736Z,3.33
2023-01-21T17:44:48.845Z,3.17
2023-01-21T17:47:22.101Z,3.04
2023-01-21T17:49:59.501Z,2.97
2023-01-21T17:52:27.979Z,2.87
2023-01-21T17:55:16.584Z,2.75
2023-01-21T17:57:44.664Z,2.63
2023-01-21T18:00:32.551Z,2.53
2023-01-21T18:03:00.578Z,2.44
2023-01-21T18:05:29.033Z,2.38
2023-01-21T18:07:58.099Z,2.30
2023-01-21T18:10:27.178Z,2.21
2023-01-21T18:12:57.114Z,2.12
2023-01-21T18:15:27.282Z,2.00
2023-01-21T18:17:58.063Z,1.89
2023-01-21T18:20:27.495Z,1.80
2023-01-21T18:22:56.590Z,1.73
2023-01-21T18:25:26.320Z,1.65
2023-01-21T18:27:54.956Z,1.57
2023-01-21T18:30:27.333Z,1.50
2023-01-21T18:32:56.039Z,1.43
2023-01-21T18:35:28.713Z,1.31
2023-01-21T18:37:56.871Z,1.19
2023-01-21T18:40:24.779Z,1.14
2023-01-21T18:42:55.518Z,1.12
2023-01-21T18:45:26.043Z,1.09
2023-01-21T18:47:54.763Z,1.09
2023-01-21T18:50:26.872Z,1.09
2023-01-21T18:52:56.862Z,1.07
2023-01-21T18:55:27.625Z,0.96
2023-01-21T18:57:57.039Z,0.85
2023-01-21T19:00:26.885Z,0.78
2023-01-21T19:02:56.122Z,0.75
2023-01-21T19:05:25.514Z,0.73
2023-01-21T19:07:53.485Z,0.72
2023-01-21T19:10:21.779Z,0.76
2023-01-21T19:12:50.677Z,0.78
2023-01-21T19:15:19.648Z,0.80
2023-01-21T19:17:48.413Z,0.74
2023-01-21T19:20:18.229Z,0.69
2023-01-21T19:22:46.854Z,0.68
2023-01-21T19:25:15.741Z,0.70
2023-01-21T19:27:46.247Z,0.70
2023-01-21T19:30:25.737Z,0.75
2023-01-21T19:32:54.914Z,0.87
2023-01-21T19:35:34.116Z,0.88
2023-01-21T19:38:03.624Z,0.88
2023-01-21T19:40:31.672Z,0.97
2023-01-21T19:43:00.157Z,1.00
2023-01-21T19:45:29.568Z,0.96
2023-01-21T19:47:58.355Z,0.91
2023-01-21T19:50:27.118Z,0.89
2023-01-21T19:52:55.406Z,0.85
2023-01-21T19:55:24.526Z,0.76
2023-01-21T19:58:00.701Z,0.65
2023-01-21T20:00:31.523Z,0.48
2023-01-21T20:02:59.720Z,0.37
2023-01-21T20:05:28.891Z,0.29
2023-01-21T20:07:57.192Z,0.28
2023-01-21T20:10:27.827Z,0.31
2023-01-21T20:12:55.879Z,0.36
2023-01-21T20:15:29.893Z,0.34
2023-01-21T20:18:03.720Z,0.29
2023-01-21T20:20:32.745Z,0.25
2023-01-21T20:23:01.051Z,0.22
2023-01-21T20:25:36.877Z,0.24
2023-01-21T20:28:19.382Z,0.30
2023-01-21T20:30:48.288Z,0.38
2023-01-21T20:33:17.520Z,0.46
2023-01-21T20:35:47.649Z,0.53
2023-01-21T20:38:17.646Z,0.58
2023-01-21T20:40:45.487Z,0.60
2023-01-21T20:43:13.803Z,0.58
2023-01-21T20:45:42.793Z,0.53
2023-01-21T20:48:17.917Z,0.53
2023-01-21T20:50:45.936Z,0.61
2023-01-21T20:53:13.773Z,0.68
2023-01-21T20:55:43.553Z,0.69
2023-01-21T20:58:12.593Z,0.68
2023-01-21T21:00:41.833Z,0.69
2023-01-21T21:03:10.019Z,0.77
2023-01-21T21:05:37.966Z,0.88
2023-01-21T21:08:05.912Z,0.96
2023-01-21T21:10:36.140Z,0.94
2023-01-21T21:13:04.494Z,0.94
2023-01-21T21:15:34.035Z,0.96
2023-01-21T21:18:03.829Z,0.88
2023-01-21T21:20:32.976Z,0.87
2023-01-21T21:23:01.070Z,0.83
2023-01-21T21:25:30.597Z,0.81
2023-01-21T21:27:58.764Z,0.82
2023-01-21T21:30:31.086Z,0.83
2023-01-21T21:33:00.813Z,0.85
2023-01-21T21:35:34.138Z,0.89
2023-01-21T21:38:11.444Z,0.91
2023-01-21T21:40:39.394Z,0.95
2023-01-21T21:43:25.890Z,0.97
2023-01-21T21:46:12.440Z,0.98
2023-01-21T21:48:42.411Z,0.95
2023-01-21T21:51:14.094Z,0.91
2023-01-21T21:53:42.146Z,0.92
2023-01-21T21:56:14.157Z,0.92
2023-01-21T21:58:41.998Z,0.91
2023-01-21T22:01:16.984Z,0.89
2023-01-21T22:03:45.040Z,0.88
2023-01-21T22:06:12.992Z,0.89
2023-01-21T22:08:42.647Z,0.88
2023-01-21T22:11:13.947Z,0.86
2023-01-21T22:13:43.575Z,0.86
2023-01-21T22:16:13.434Z,0.85
2023-01-21T22:18:41.854Z,0.81
2023-01-21T22:21:13.214Z,0.78
2023-01-21T22:23:41.840Z,0.76
2023-01-21T22:26:13.108Z,0.76
2023-01-21T22:28:41.801Z,0.78
2023-01-21T22:31:14.319Z,0.80
2023-01-21T22:33:42.423Z,0.78
2023-01-21T22:36:11.799Z,0.77
2023-01-21T22:38:40.918Z,0.78
2023-01-21T22:41:10.067Z,0.84
2023-01-21T22:43:50.704Z,0.89
2023-01-21T22:46:20.471Z,0.89
2023-01-21T22:48:48.338Z,0.84
2023-01-21T22:51:18.530Z,0.80
2023-01-21T22:53:46.707Z,0.73
2023-01-21T22:56:15.514Z,0.70
2023-01-21T22:58:43.842Z,0.78
2023-01-21T23:01:31.265Z,0.88
2023-01-21T23:04:00.173Z,0.90
2023-01-21T23:06:28.535Z,0.91
2023-01-21T23:08:56.389Z,0.92
2023-01-21T23:11:24.476Z,0.94
2023-01-21T23:13:54.483Z,1.00
2023-01-21T23:16:22.479Z,1.02
2023-01-21T23:18:50.604Z,0.90
2023-01-21T23:21:20.306Z,0.80
2023-01-21T23:23:48.868Z,0.74
2023-01-21T23:26:19.289Z,0.69
2023-01-21T23:28:47.373Z,0.69
2023-01-21T23:31:16.831Z,0.71
2023-01-21T23:33:48.776Z,0.79
2023-01-21T23:36:16.979Z,0.86
2023-01-21T23:38:45.127Z,0.94
2023-01-21T23:41:14.193Z,0.97
2023-01-21T23:43:42.352Z,0.93
2023-01-21T23:46:19.774Z,0.92
2023-01-21T23:48:48.122Z,0.85
2023-01-21T23:51:16.985Z,0.77
2023-01-21T23:53:46.150Z,0.79
2023-01-21T23:56:24.058Z,0.85
2023-01-21T23:58:52.466Z,0.90
